createdAt,value
2018-01-01T00:00:41.768Z,948.04
2018-01-01T00:01:41.788Z,948.03
2018-01-01T00:02:41.811Z,947.97
2018-01-01T00:03:41.814Z,948.01
2018-01-01T00:04:41.844Z,948
2018-01-01T00:05:41.846Z,948.01
2018-01-01T00:06:42.025Z,947.98
2018-01-01T00:07:41.891Z,948.02
2018-01-01T00:08:41.896Z,948.02
2018-01-01T00:09:41.913Z,948.01
2018-01-01T00:10:41.929Z,948.02
2018-01-01T00:11:41.958Z,948.02
2018-01-01T00:12:41.962Z,948.04
2018-01-01T00:13:41.978Z,948.05
2018-01-01T00:14:41.994Z,948.01
2018-01-01T00:15:42.012Z,948.02
2018-01-01T00:16:42.026Z,948
2018-01-01T00:17:42.043Z,948.02
2018-01-01T00:18:42.060Z,947.99
2018-01-01T00:19:42.076Z,948
2018-01-01T00:20:42.092Z,947.95
2018-01-01T00:21:42.159Z,947.97
2018-01-01T00:22:42.125Z,947.93
2018-01-01T00:23:42.140Z,947.93
2018-01-01T00:24:42.156Z,947.94
2018-01-01T00:25:42.173Z,947.96
2018-01-01T00:26:42.190Z,947.95
2018-01-01T00:27:42.204Z,947.91
2018-01-01T00:28:42.226Z,947.94
2018-01-01T00:29:42.300Z,947.95
2018-01-01T00:30:42.255Z,947.94
2018-01-01T00:31:42.269Z,947.88
2018-01-01T00:32:42.287Z,947.94
2018-01-01T00:33:42.305Z,947.99
2018-01-01T00:34:42.319Z,948.01
2018-01-01T00:35:42.336Z,947.99
2018-01-01T00:36:42.403Z,948.02
2018-01-01T00:37:42.370Z,948.01
2018-01-01T00:38:42.385Z,947.97
2018-01-01T00:39:42.401Z,948.01
2018-01-01T00:40:42.418Z,948.01
2018-01-01T00:41:42.433Z,947.97
2018-01-01T00:42:42.450Z,947.96
2018-01-01T00:43:42.467Z,947.97
2018-01-01T00:44:42.484Z,948
2018-01-01T00:45:42.498Z,948.05
2018-01-01T00:46:42.516Z,948.06
2018-01-01T00:47:42.533Z,948.1
2018-01-01T00:48:42.552Z,948.07
2018-01-01T00:49:42.566Z,948.07
2018-01-01T00:50:42.582Z,948.09
2018-01-01T00:51:42.600Z,948.1
2018-01-01T00:52:42.615Z,948.1
2018-01-01T00:53:42.695Z,948.04
2018-01-01T00:54:42.648Z,948.07
2018-01-01T00:55:42.666Z,948.04
2018-01-01T00:56:42.681Z,948.04
2018-01-01T00:57:42.729Z,948.03
2018-01-01T00:58:42.715Z,948.01
2018-01-01T00:59:42.733Z,948
2018-01-01T01:00:42.761Z,947.98
2018-01-01T01:01:42.765Z,947.99
2018-01-01T01:02:42.781Z,947.96
2018-01-01T01:03:42.798Z,947.95
2018-01-01T01:04:42.815Z,947.96
2018-01-01T01:05:42.833Z,947.89
2018-01-01T01:06:42.850Z,947.91
2018-01-01T01:07:42.866Z,947.86
2018-01-01T01:08:44.035Z,947.86
2018-01-01T01:09:42.901Z,947.87
2018-01-01T01:10:42.917Z,947.89
2018-01-01T01:11:42.933Z,947.83
2018-01-01T01:12:42.951Z,947.85
2018-01-01T01:13:42.969Z,947.85
2018-01-01T01:14:42.985Z,947.83
2018-01-01T01:15:43.002Z,947.88
2018-01-01T01:16:43.019Z,947.91
2018-01-01T01:17:43.036Z,947.88
2018-01-01T01:18:43.052Z,947.87
2018-01-01T01:19:43.069Z,947.85
2018-01-01T01:20:43.089Z,947.91
2018-01-01T01:21:43.102Z,947.89
2018-01-01T01:22:43.121Z,947.85
2018-01-01T01:23:43.137Z,947.86
2018-01-01T01:24:43.155Z,947.88
2018-01-01T01:25:43.175Z,947.83
2018-01-01T01:26:43.188Z,947.81
2018-01-01T01:27:43.205Z,947.8
2018-01-01T01:28:43.222Z,947.82
2018-01-01T01:29:43.237Z,947.9
2018-01-01T01:30:43.256Z,947.92
2018-01-01T01:31:43.272Z,947.85
2018-01-01T01:32:43.289Z,947.85
2018-01-01T01:33:43.305Z,947.9
2018-01-01T01:34:43.327Z,947.82
2018-01-01T01:35:43.340Z,947.82
2018-01-01T01:36:43.357Z,947.81
2018-01-01T01:37:43.375Z,947.8
2018-01-01T01:38:43.391Z,947.79
2018-01-01T01:39:43.408Z,947.82
2018-01-01T01:40:43.425Z,947.88
2018-01-01T01:41:43.442Z,947.83
2018-01-01T01:42:43.471Z,947.83
2018-01-01T01:43:43.477Z,947.86
2018-01-01T01:44:43.494Z,947.83
2018-01-01T01:45:43.512Z,947.81
2018-01-01T01:46:43.529Z,947.82
2018-01-01T01:47:43.545Z,947.81
2018-01-01T01:48:43.562Z,947.8
2018-01-01T01:49:43.580Z,947.84
2018-01-01T01:50:43.596Z,947.82
2018-01-01T01:51:43.614Z,947.83
2018-01-01T01:52:43.630Z,947.91
2018-01-01T01:53:43.647Z,947.92
2018-01-01T01:54:43.665Z,947.9
2018-01-01T01:55:43.681Z,947.93
2018-01-01T01:56:43.698Z,947.93
2018-01-01T01:57:43.717Z,947.89
2018-01-01T01:58:43.733Z,947.91
2018-01-01T01:59:43.751Z,947.89
2018-01-01T02:00:43.767Z,947.94
2018-01-01T02:01:43.787Z,947.93
2018-01-01T02:02:43.802Z,947.9
2018-01-01T02:03:43.817Z,947.91
2018-01-01T02:04:43.835Z,947.88
2018-01-01T02:05:43.853Z,947.86
2018-01-01T02:06:43.872Z,947.85
2018-01-01T02:07:43.887Z,947.87
2018-01-01T02:08:43.904Z,947.89
2018-01-01T02:09:43.920Z,947.87
2018-01-01T02:10:43.939Z,947.87
2018-01-01T02:11:43.956Z,947.91
2018-01-01T02:12:43.974Z,947.91
2018-01-01T02:13:43.989Z,947.92
2018-01-01T02:14:44.007Z,947.85
2018-01-01T02:15:44.060Z,947.92
2018-01-01T02:16:44.047Z,947.9
2018-01-01T02:17:44.057Z,947.85
2018-01-01T02:18:44.077Z,947.92
2018-01-01T02:19:44.093Z,947.86
2018-01-01T02:20:44.109Z,947.87
2018-01-01T02:21:44.127Z,947.92
2018-01-01T02:22:44.144Z,947.93
2018-01-01T02:23:44.161Z,947.95
2018-01-01T02:24:44.179Z,947.96
2018-01-01T02:25:44.195Z,947.97
2018-01-01T02:26:44.213Z,947.95
2018-01-01T02:27:44.234Z,947.96
2018-01-01T02:28:44.247Z,948
2018-01-01T02:29:44.264Z,947.95
2018-01-01T02:30:44.288Z,948.01
2018-01-01T02:31:44.298Z,948.04
2018-01-01T02:32:44.320Z,948.05
2018-01-01T02:33:44.332Z,948.11
2018-01-01T02:34:44.349Z,948.08
2018-01-01T02:35:44.368Z,948.05
2018-01-01T02:36:44.389Z,948.06
2018-01-01T02:37:44.402Z,948.02
2018-01-01T02:38:44.420Z,948
2018-01-01T02:39:44.434Z,948
2018-01-01T02:40:44.452Z,947.98
2018-01-01T02:41:44.470Z,948.02
2018-01-01T02:42:44.486Z,948.08
2018-01-01T02:43:44.504Z,948.12
2018-01-01T02:44:44.521Z,948.06
2018-01-01T02:45:44.541Z,948.07
2018-01-01T02:46:44.555Z,948.11
2018-01-01T02:47:44.572Z,948.15
2018-01-01T02:48:44.594Z,948.17
2018-01-01T02:49:44.607Z,948.19
2018-01-01T02:50:44.624Z,948.2
2018-01-01T02:51:44.642Z,948.2
2018-01-01T02:52:44.659Z,948.21
2018-01-01T02:53:44.677Z,948.16
2018-01-01T02:54:44.695Z,948.36
2018-01-01T02:55:44.712Z,948.34
2018-01-01T02:56:44.729Z,948.42
2018-01-01T02:57:44.754Z,948.4
2018-01-01T02:58:44.768Z,948.47
2018-01-01T02:59:44.781Z,948.44
2018-01-01T03:00:44.796Z,948.48
2018-01-01T03:01:44.815Z,948.49
2018-01-01T03:02:44.832Z,948.41
2018-01-01T03:03:44.849Z,948.54
2018-01-01T03:04:44.872Z,948.54
2018-01-01T03:05:44.882Z,948.55
2018-01-01T03:06:44.900Z,948.56
2018-01-01T03:07:44.917Z,948.59
2018-01-01T03:08:44.935Z,948.64
2018-01-01T03:09:44.953Z,948.62
2018-01-01T03:10:44.973Z,948.66
2018-01-01T03:11:44.985Z,948.6
2018-01-01T03:12:45.006Z,948.62
2018-01-01T03:13:45.026Z,948.66
2018-01-01T03:14:45.043Z,948.66
2018-01-01T03:15:45.055Z,948.69
2018-01-01T03:16:45.073Z,948.69
2018-01-01T03:17:45.090Z,948.8
2018-01-01T03:18:45.107Z,948.67
2018-01-01T03:19:45.125Z,948.75
2018-01-01T03:20:45.142Z,948.74
2018-01-01T03:21:45.163Z,948.77
2018-01-01T03:22:45.177Z,948.79
2018-01-01T03:23:45.195Z,948.77
2018-01-01T03:24:45.212Z,948.86
2018-01-01T03:25:45.229Z,948.87
2018-01-01T03:26:45.247Z,948.86
2018-01-01T03:27:45.263Z,948.82
2018-01-01T03:28:45.280Z,948.89
2018-01-01T03:29:45.296Z,948.94
2018-01-01T03:30:45.315Z,948.97
2018-01-01T03:31:45.332Z,949.02
2018-01-01T03:32:45.350Z,948.98
2018-01-01T03:33:45.366Z,949.01
2018-01-01T03:34:45.383Z,949.01
2018-01-01T03:35:45.399Z,949.03
2018-01-01T03:36:45.419Z,949.09
2018-01-01T03:37:45.436Z,949.06
2018-01-01T03:38:45.452Z,949.03
2018-01-01T03:39:45.471Z,949.03
2018-01-01T03:40:45.486Z,949.05
2018-01-01T03:41:45.502Z,949.04
2018-01-01T03:42:45.521Z,949.12
2018-01-01T03:43:45.539Z,949.08
2018-01-01T03:44:45.554Z,949.14
2018-01-01T03:45:45.573Z,949.14
2018-01-01T03:46:45.591Z,949.14
2018-01-01T03:47:45.608Z,949.15
2018-01-01T03:48:45.624Z,949.17
2018-01-01T03:49:45.641Z,949.24
2018-01-01T03:50:45.660Z,949.23
2018-01-01T03:51:45.675Z,949.2
2018-01-01T03:52:45.692Z,949.32
2018-01-01T03:53:45.709Z,949.31
2018-01-01T03:54:45.780Z,949.35
2018-01-01T03:55:45.744Z,949.38
2018-01-01T03:56:45.760Z,949.44
2018-01-01T03:57:45.780Z,949.39
2018-01-01T03:58:45.796Z,949.5
2018-01-01T03:59:45.912Z,949.42
2018-01-01T04:00:45.835Z,949.52
2018-01-01T04:01:45.848Z,949.54
2018-01-01T04:02:45.865Z,949.59
2018-01-01T04:03:45.882Z,949.62
2018-01-01T04:04:45.899Z,949.66
2018-01-01T04:05:45.917Z,949.59
2018-01-01T04:06:45.934Z,949.69
2018-01-01T04:07:45.951Z,949.65
2018-01-01T04:08:45.969Z,949.65
2018-01-01T04:09:46.036Z,949.77
2018-01-01T04:10:46.002Z,949.64
2018-01-01T04:11:46.024Z,949.69
2018-01-01T04:12:46.037Z,949.77
2018-01-01T04:13:46.054Z,949.72
2018-01-01T04:14:46.073Z,949.75
2018-01-01T04:15:46.090Z,949.74
2018-01-01T04:16:46.106Z,949.8
2018-01-01T04:17:46.123Z,949.83
2018-01-01T04:18:46.144Z,949.84
2018-01-01T04:19:46.159Z,949.87
2018-01-01T04:20:46.176Z,949.78
2018-01-01T04:21:46.193Z,949.88
2018-01-01T04:22:46.209Z,949.94
2018-01-01T04:23:46.228Z,949.94
2018-01-01T04:24:46.295Z,950.02
2018-01-01T04:25:46.262Z,950.06
2018-01-01T04:26:46.280Z,950.05
2018-01-01T04:27:46.304Z,950.11
2018-01-01T04:28:46.313Z,950.12
2018-01-01T04:29:46.331Z,950.14
2018-01-01T04:30:46.347Z,950.16
2018-01-01T04:31:46.366Z,950.09
2018-01-01T04:32:46.381Z,950.16
2018-01-01T04:33:46.399Z,950.32
2018-01-01T04:34:46.417Z,950.25
2018-01-01T04:35:46.433Z,950.32
2018-01-01T04:36:46.449Z,950.25
2018-01-01T04:37:46.466Z,950.33
2018-01-01T04:38:46.487Z,950.38
2018-01-01T04:39:46.550Z,950.34
2018-01-01T04:40:46.518Z,950.36
2018-01-01T04:41:46.533Z,950.42
2018-01-01T04:42:46.554Z,950.63
2018-01-01T04:43:46.566Z,950.55
2018-01-01T04:44:46.584Z,950.57
2018-01-01T04:45:46.601Z,950.57
2018-01-01T04:46:46.616Z,950.74
2018-01-01T04:47:46.631Z,950.67
2018-01-01T04:48:46.647Z,950.67
2018-01-01T04:49:46.667Z,950.68
2018-01-01T04:50:46.682Z,950.76
2018-01-01T04:51:46.695Z,950.79
2018-01-01T04:52:46.713Z,950.75
2018-01-01T04:53:46.728Z,950.72
2018-01-01T04:54:46.796Z,950.64
2018-01-01T04:55:46.760Z,950.62
2018-01-01T04:56:46.777Z,950.49
2018-01-01T04:57:46.791Z,950.48
2018-01-01T04:58:46.808Z,950.52
2018-01-01T04:59:46.824Z,950.55
2018-01-01T05:00:46.839Z,950.47
2018-01-01T05:01:46.854Z,950.54
2018-01-01T05:02:46.868Z,950.62
2018-01-01T05:03:46.885Z,950.59
2018-01-01T05:04:46.900Z,950.49
2018-01-01T05:05:46.916Z,950.63
2018-01-01T05:06:46.929Z,950.47
2018-01-01T05:07:46.944Z,950.57
2018-01-01T05:08:46.958Z,950.56
2018-01-01T05:09:47.026Z,950.39
2018-01-01T05:10:46.991Z,950.44
2018-01-01T05:11:47.018Z,950.62
2018-01-01T05:12:47.021Z,950.38
2018-01-01T05:13:47.035Z,950.59
2018-01-01T05:14:47.051Z,950.43
2018-01-01T05:15:47.066Z,950.42
2018-01-01T05:16:47.082Z,950.44
2018-01-01T05:17:47.095Z,950.64
2018-01-01T05:18:47.111Z,950.69
2018-01-01T05:19:47.126Z,950.62
2018-01-01T05:20:47.142Z,950.53
2018-01-01T05:21:47.158Z,950.53
2018-01-01T05:22:47.173Z,950.52
2018-01-01T05:23:47.187Z,950.57
2018-01-01T05:24:47.252Z,950.54
2018-01-01T05:25:47.217Z,950.58
2018-01-01T05:26:47.236Z,950.57
2018-01-01T05:27:47.248Z,950.47
2018-01-01T05:28:47.269Z,950.44
2018-01-01T05:29:47.278Z,950.45
2018-01-01T05:30:47.293Z,950.38
2018-01-01T05:31:47.308Z,950.42
2018-01-01T05:32:47.324Z,950.5
2018-01-01T05:33:47.352Z,950.38
2018-01-01T05:34:47.354Z,950.35
2018-01-01T05:35:47.371Z,950.35
2018-01-01T05:36:47.386Z,950.38
2018-01-01T05:37:47.400Z,950.27
2018-01-01T05:38:47.416Z,950.37
2018-01-01T05:39:47.480Z,950.38
2018-01-01T05:40:47.447Z,950.31
2018-01-01T05:41:47.465Z,950.36
2018-01-01T05:42:47.478Z,950.36
2018-01-01T05:43:47.492Z,950.42
2018-01-01T05:44:47.508Z,950.4
2018-01-01T05:45:47.523Z,950.5
2018-01-01T05:46:47.539Z,950.56
2018-01-01T05:47:47.555Z,950.48
2018-01-01T05:48:47.569Z,950.6
2018-01-01T05:49:47.584Z,950.61
2018-01-01T05:50:47.600Z,950.69
2018-01-01T05:51:47.617Z,950.66
2018-01-01T05:52:47.630Z,950.76
2018-01-01T05:53:47.647Z,950.75
2018-01-01T05:54:47.713Z,950.71
2018-01-01T05:55:47.679Z,950.78
2018-01-01T05:56:47.695Z,950.81
2018-01-01T05:57:47.708Z,951.03
2018-01-01T05:58:47.725Z,950.9
2018-01-01T05:59:47.739Z,950.87
2018-01-01T06:00:47.755Z,950.88
2018-01-01T06:01:47.771Z,951
2018-01-01T06:02:47.787Z,951.08
2018-01-01T06:03:47.801Z,951.13
2018-01-01T06:04:47.816Z,951.07
2018-01-01T06:05:47.832Z,951.24
2018-01-01T06:06:47.847Z,951.19
2018-01-01T06:07:47.863Z,951.16
2018-01-01T06:08:47.879Z,951.23
2018-01-01T06:09:47.894Z,951.22
2018-01-01T06:10:47.911Z,951.26
2018-01-01T06:11:47.974Z,951.27
2018-01-01T06:12:47.941Z,951.34
2018-01-01T06:13:47.956Z,951.35
2018-01-01T06:14:47.971Z,951.23
2018-01-01T06:15:47.986Z,951.31
2018-01-01T06:16:48.004Z,951.43
2018-01-01T06:17:48.019Z,951.27
2018-01-01T06:18:48.036Z,951.27
2018-01-01T06:19:48.048Z,951.39
2018-01-01T06:20:48.066Z,951.31
2018-01-01T06:21:48.080Z,951.39
2018-01-01T06:22:48.095Z,951.3
2018-01-01T06:23:48.112Z,951.2
2018-01-01T06:24:48.135Z,951.27
2018-01-01T06:25:48.141Z,951.32
2018-01-01T06:26:48.208Z,951.25
2018-01-01T06:27:48.173Z,951.28
2018-01-01T06:28:48.188Z,951.29
2018-01-01T06:29:48.204Z,951.28
2018-01-01T06:30:48.221Z,951.33
2018-01-01T06:31:48.236Z,951.37
2018-01-01T06:32:48.252Z,951.38
2018-01-01T06:33:48.266Z,951.41
2018-01-01T06:34:48.285Z,951.26
2018-01-01T06:35:48.297Z,951.32
2018-01-01T06:36:48.312Z,951.39
2018-01-01T06:37:48.328Z,951.28
2018-01-01T06:38:48.345Z,951.3
2018-01-01T06:39:48.358Z,951.32
2018-01-01T06:40:48.375Z,951.31
2018-01-01T06:41:48.442Z,951.42
2018-01-01T06:42:48.405Z,951.4
2018-01-01T06:43:48.422Z,951.33
2018-01-01T06:44:48.438Z,951.4
2018-01-01T06:45:48.456Z,951.38
2018-01-01T06:46:48.471Z,951.33
2018-01-01T06:47:48.483Z,951.37
2018-01-01T06:48:48.503Z,951.31
2018-01-01T06:49:48.515Z,951.35
2018-01-01T06:50:48.529Z,951.38
2018-01-01T06:51:48.545Z,951.35
2018-01-01T06:52:48.561Z,951.41
2018-01-01T06:53:48.580Z,951.43
2018-01-01T06:54:48.634Z,951.51
2018-01-01T06:55:48.613Z,951.47
2018-01-01T06:56:48.673Z,951.49
2018-01-01T06:57:48.639Z,951.42
2018-01-01T06:58:48.657Z,951.44
2018-01-01T06:59:48.670Z,951.48
2018-01-01T07:00:48.687Z,951.47
2018-01-01T07:01:48.700Z,951.49
2018-01-01T07:02:48.715Z,951.52
2018-01-01T07:03:48.732Z,951.48
2018-01-01T07:04:48.748Z,951.51
2018-01-01T07:05:48.762Z,951.48
2018-01-01T07:06:48.777Z,951.51
2018-01-01T07:07:48.794Z,951.36
2018-01-01T07:08:48.822Z,951.42
2018-01-01T07:09:48.824Z,951.44
2018-01-01T07:10:48.840Z,951.43
2018-01-01T07:11:48.912Z,951.42
2018-01-01T07:12:48.871Z,951.48
2018-01-01T07:13:48.886Z,951.47
2018-01-01T07:14:48.903Z,951.47
2018-01-01T07:15:48.918Z,951.44
2018-01-01T07:16:49.042Z,951.5
2018-01-01T07:17:48.952Z,951.51
2018-01-01T07:18:48.965Z,951.6
2018-01-01T07:19:48.981Z,951.6
2018-01-01T07:20:48.994Z,951.54
2018-01-01T07:21:49.011Z,951.64
2018-01-01T07:22:49.026Z,951.59
2018-01-01T07:23:49.041Z,951.46
2018-01-01T07:24:49.057Z,951.52
2018-01-01T07:25:49.072Z,951.53
2018-01-01T07:26:49.139Z,951.58
2018-01-01T07:27:49.103Z,951.6
2018-01-01T07:28:49.120Z,951.62
2018-01-01T07:29:49.136Z,951.53
2018-01-01T07:30:49.151Z,951.56
2018-01-01T07:31:49.167Z,951.53
2018-01-01T07:32:49.182Z,951.52
2018-01-01T07:33:49.198Z,951.52
2018-01-01T07:34:49.212Z,951.53
2018-01-01T07:35:49.228Z,951.49
2018-01-01T07:36:49.246Z,951.54
2018-01-01T07:37:49.262Z,951.64
2018-01-01T07:38:49.274Z,951.54
2018-01-01T07:39:49.290Z,951.55
2018-01-01T07:40:49.306Z,951.59
2018-01-01T07:41:49.372Z,951.5
2018-01-01T07:42:49.336Z,951.68
2018-01-01T07:43:49.352Z,951.75
2018-01-01T07:44:49.373Z,951.71
2018-01-01T07:45:49.383Z,951.76
2018-01-01T07:46:49.399Z,951.82
2018-01-01T07:47:49.414Z,951.76
2018-01-01T07:48:49.430Z,951.74
2018-01-01T07:49:49.446Z,951.79
2018-01-01T07:50:49.462Z,951.78
2018-01-01T07:51:49.549Z,951.74
2018-01-01T07:52:49.492Z,951.78
2018-01-01T07:53:49.507Z,951.87
2018-01-01T07:54:49.524Z,951.74
2018-01-01T07:55:49.541Z,951.86
2018-01-01T07:56:49.604Z,951.86
2018-01-01T07:57:49.571Z,951.79
2018-01-01T07:58:49.585Z,951.84
2018-01-01T07:59:49.605Z,951.95
2018-01-01T08:00:49.617Z,951.83
2018-01-01T08:01:49.632Z,951.89
2018-01-01T08:02:49.648Z,951.97
2018-01-01T08:03:49.665Z,951.88
2018-01-01T08:04:49.680Z,951.95
2018-01-01T08:05:49.695Z,952.01
2018-01-01T08:06:49.711Z,951.87
2018-01-01T08:07:49.728Z,951.95
2018-01-01T08:08:49.742Z,951.95
2018-01-01T08:09:49.759Z,951.92
2018-01-01T08:10:49.775Z,952.03
2018-01-01T08:11:49.838Z,952.01
2018-01-01T08:12:49.804Z,951.98
2018-01-01T08:13:49.821Z,952.05
2018-01-01T08:14:49.835Z,952.02
2018-01-01T08:15:49.851Z,951.96
2018-01-01T08:16:49.867Z,952.02
2018-01-01T08:17:49.884Z,952.02
2018-01-01T08:18:49.899Z,952.09
2018-01-01T08:19:49.915Z,952.07
2018-01-01T08:20:49.930Z,952.01
2018-01-01T08:21:49.948Z,952.02
2018-01-01T08:22:49.961Z,952.09
2018-01-01T08:23:49.978Z,952
2018-01-01T08:24:49.993Z,952.35
2018-01-01T08:25:50.008Z,951.98
2018-01-01T08:26:50.080Z,951.97
2018-01-01T08:27:50.040Z,951.98
2018-01-01T08:28:50.056Z,951.99
2018-01-01T08:29:50.071Z,952.06
2018-01-01T08:30:50.086Z,951.9
2018-01-01T08:31:50.102Z,951.97
2018-01-01T08:32:50.151Z,951.97
2018-01-01T08:33:50.130Z,952
2018-01-01T08:34:50.149Z,951.96
2018-01-01T08:35:50.165Z,951.97
2018-01-01T08:36:50.181Z,951.92
2018-01-01T08:37:50.197Z,951.77
2018-01-01T08:38:50.213Z,951.87
2018-01-01T08:39:50.228Z,951.85
2018-01-01T08:40:50.243Z,952.05
2018-01-01T08:41:50.310Z,951.84
2018-01-01T08:42:50.276Z,951.89
2018-01-01T08:43:50.296Z,951.92
2018-01-01T08:44:50.308Z,951.95
2018-01-01T08:45:50.323Z,951.99
2018-01-01T08:46:50.338Z,952.08
2018-01-01T08:47:50.354Z,951.87
2018-01-01T08:48:50.370Z,951.88
2018-01-01T08:49:50.386Z,952.08
2018-01-01T08:50:50.403Z,952.13
2018-01-01T08:51:50.418Z,952
2018-01-01T08:52:50.434Z,952.07
2018-01-01T08:53:50.451Z,952.11
2018-01-01T08:54:50.467Z,952.08
2018-01-01T08:55:50.481Z,951.97
2018-01-01T08:56:50.548Z,951.96
2018-01-01T08:57:50.514Z,952.09
2018-01-01T08:58:50.528Z,952.07
2018-01-01T08:59:50.548Z,952.03
2018-01-01T09:00:50.560Z,952.05
2018-01-01T09:01:50.577Z,952.08
2018-01-01T09:02:50.597Z,952.16
2018-01-01T09:03:50.611Z,952.23
2018-01-01T09:04:50.627Z,952.06
2018-01-01T09:05:50.646Z,952.06
2018-01-01T09:06:50.655Z,952.2
2018-01-01T09:07:50.672Z,952.19
2018-01-01T09:08:50.688Z,952.18
2018-01-01T09:09:50.703Z,952.31
2018-01-01T09:10:50.725Z,952.22
2018-01-01T09:11:50.784Z,952.21
2018-01-01T09:12:50.751Z,952.23
2018-01-01T09:13:50.767Z,952.35
2018-01-01T09:14:50.783Z,952.18
2018-01-01T09:15:50.798Z,952.2
2018-01-01T09:16:50.822Z,952.23
2018-01-01T09:17:50.831Z,952.24
2018-01-01T09:18:50.846Z,952.17
2018-01-01T09:19:50.865Z,952.24
2018-01-01T09:20:50.879Z,952.2
2018-01-01T09:21:50.894Z,952.37
2018-01-01T09:22:50.909Z,952.3
2018-01-01T09:23:50.925Z,952.26
2018-01-01T09:24:50.941Z,952.29
2018-01-01T09:25:50.959Z,952.19
2018-01-01T09:26:51.024Z,952.27
2018-01-01T09:27:50.999Z,952.27
2018-01-01T09:28:51.005Z,952.34
2018-01-01T09:29:51.021Z,952.07
2018-01-01T09:30:51.037Z,952.31
2018-01-01T09:31:51.053Z,952.23
2018-01-01T09:32:51.068Z,952.21
2018-01-01T09:33:51.087Z,952.31
2018-01-01T09:34:51.104Z,952.44
2018-01-01T09:35:51.116Z,952.04
2018-01-01T09:36:51.133Z,952.25
2018-01-01T09:37:51.150Z,952.16
2018-01-01T09:38:51.165Z,952.08
2018-01-01T09:39:51.183Z,952.14
2018-01-01T09:40:51.197Z,952.29
2018-01-01T09:41:51.263Z,952.23
2018-01-01T09:42:51.229Z,952.17
2018-01-01T09:43:51.246Z,952.18
2018-01-01T09:44:51.261Z,952.21
2018-01-01T09:45:51.279Z,952.09
2018-01-01T09:46:51.293Z,952.19
2018-01-01T09:47:51.310Z,952.14
2018-01-01T09:48:51.325Z,952.22
2018-01-01T09:49:51.350Z,952.14
2018-01-01T09:50:51.365Z,952.04
2018-01-01T09:51:51.374Z,952.03
2018-01-01T09:52:51.389Z,952.05
2018-01-01T09:53:51.405Z,952.27
2018-01-01T09:54:51.422Z,952.06
2018-01-01T09:55:51.482Z,952.11
2018-01-01T09:56:51.503Z,952.04
2018-01-01T09:57:51.469Z,952.04
2018-01-01T09:58:51.486Z,951.98
2018-01-01T09:59:51.502Z,952.05
2018-01-01T10:00:51.517Z,952.13
2018-01-01T10:01:51.532Z,951.95
2018-01-01T10:02:51.548Z,951.93
2018-01-01T10:03:51.566Z,952.04
2018-01-01T10:04:51.580Z,952.02
2018-01-01T10:05:51.596Z,952.04
2018-01-01T10:06:51.618Z,952.15
2018-01-01T10:07:51.630Z,952.03
2018-01-01T10:08:51.644Z,952.11
2018-01-01T10:09:51.660Z,952.18
2018-01-01T10:10:51.675Z,952.12
2018-01-01T10:11:51.740Z,952.12
2018-01-01T10:12:51.707Z,952.04
2018-01-01T10:13:51.724Z,952.02
2018-01-01T10:14:51.742Z,952.09
2018-01-01T10:15:51.755Z,952.02
2018-01-01T10:16:51.772Z,952.1
2018-01-01T10:17:51.788Z,952.07
2018-01-01T10:18:51.803Z,951.98
2018-01-01T10:19:51.819Z,951.92
2018-01-01T10:20:51.836Z,952.11
2018-01-01T10:21:51.851Z,951.98
2018-01-01T10:22:51.867Z,951.89
2018-01-01T10:23:51.883Z,951.84
2018-01-01T10:24:51.900Z,951.93
2018-01-01T10:25:51.917Z,951.72
2018-01-01T10:26:51.986Z,951.98
2018-01-01T10:27:51.949Z,951.95
2018-01-01T10:28:51.965Z,952.01
2018-01-01T10:29:51.982Z,951.81
2018-01-01T10:30:51.998Z,951.74
2018-01-01T10:31:52.013Z,951.88
2018-01-01T10:32:52.032Z,951.85
2018-01-01T10:33:52.052Z,951.97
2018-01-01T10:34:52.063Z,951.89
2018-01-01T10:35:52.080Z,952.2
2018-01-01T10:36:52.103Z,951.92
2018-01-01T10:37:52.112Z,951.73
2018-01-01T10:38:52.129Z,952.04
2018-01-01T10:39:52.146Z,951.69
2018-01-01T10:40:52.162Z,952.02
2018-01-01T10:41:52.228Z,951.94
2018-01-01T10:42:52.195Z,951.96
2018-01-01T10:43:52.211Z,952.07
2018-01-01T10:44:52.230Z,951.97
2018-01-01T10:45:52.245Z,951.92
2018-01-01T10:46:52.262Z,951.91
2018-01-01T10:47:52.275Z,951.97
2018-01-01T10:48:52.292Z,951.74
2018-01-01T10:49:52.310Z,951.84
2018-01-01T10:50:52.325Z,951.9
2018-01-01T10:51:52.342Z,951.89
2018-01-01T10:52:52.357Z,951.84
2018-01-01T10:53:52.378Z,951.88
2018-01-01T10:54:52.391Z,951.82
2018-01-01T10:55:52.408Z,951.75
2018-01-01T10:56:52.424Z,951.79
2018-01-01T10:57:52.490Z,951.68
2018-01-01T10:58:52.458Z,951.73
2018-01-01T10:59:52.472Z,951.88
2018-01-01T11:00:52.490Z,951.87
2018-01-01T11:01:52.508Z,951.94
2018-01-01T11:02:52.524Z,951.71
2018-01-01T11:03:52.540Z,951.8
2018-01-01T11:04:52.556Z,951.97
2018-01-01T11:05:52.572Z,951.74
2018-01-01T11:06:52.589Z,951.79
2018-01-01T11:07:52.605Z,951.77
2018-01-01T11:08:52.623Z,951.67
2018-01-01T11:09:52.639Z,951.7
2018-01-01T11:10:52.656Z,951.69
2018-01-01T11:11:52.675Z,951.69
2018-01-01T11:12:52.738Z,951.69
2018-01-01T11:13:52.709Z,951.77
2018-01-01T11:14:52.721Z,951.72
2018-01-01T11:15:52.739Z,951.73
2018-01-01T11:16:52.756Z,951.66
2018-01-01T11:17:52.774Z,951.59
2018-01-01T11:18:52.788Z,951.54
2018-01-01T11:19:52.805Z,951.5
2018-01-01T11:20:52.821Z,951.56
2018-01-01T11:21:52.838Z,951.46
2018-01-01T11:22:52.855Z,951.5
2018-01-01T11:23:52.872Z,951.53
2018-01-01T11:24:52.887Z,951.47
2018-01-01T11:25:52.904Z,951.42
2018-01-01T11:26:52.924Z,951.42
2018-01-01T11:27:52.986Z,951.41
2018-01-01T11:28:52.954Z,951.4
2018-01-01T11:29:52.968Z,951.41
2018-01-01T11:30:52.986Z,951.45
2018-01-01T11:31:53.003Z,951.48
2018-01-01T11:32:53.069Z,951.3
2018-01-01T11:33:53.037Z,951.24
2018-01-01T11:34:53.052Z,951.37
2018-01-01T11:35:53.069Z,951.34
2018-01-01T11:36:53.086Z,951.34
2018-01-01T11:37:53.103Z,951.37
2018-01-01T11:38:53.120Z,951.26
2018-01-01T11:39:53.137Z,951.23
2018-01-01T11:40:53.154Z,951.28
2018-01-01T11:41:53.171Z,951.27
2018-01-01T11:42:53.239Z,951.2
2018-01-01T11:43:53.205Z,951.21
2018-01-01T11:44:53.222Z,951.13
2018-01-01T11:45:53.240Z,951.16
2018-01-01T11:46:53.258Z,951.18
2018-01-01T11:47:53.274Z,951.14
2018-01-01T11:48:53.295Z,951.18
2018-01-01T11:49:53.311Z,951.23
2018-01-01T11:50:53.327Z,950.98
2018-01-01T11:51:53.347Z,951.08
2018-01-01T11:52:53.364Z,951.03
2018-01-01T11:53:53.382Z,950.94
2018-01-01T11:54:53.404Z,950.99
2018-01-01T11:55:53.429Z,951.04
2018-01-01T11:56:53.434Z,951.1
2018-01-01T11:57:53.502Z,950.83
2018-01-01T11:58:53.482Z,950.91
2018-01-01T11:59:53.490Z,950.96
2018-01-01T12:00:53.507Z,951
2018-01-01T12:01:53.538Z,950.81
2018-01-01T12:02:53.544Z,950.81
2018-01-01T12:03:53.561Z,950.6
2018-01-01T12:04:53.578Z,950.76
2018-01-01T12:05:53.607Z,950.75
2018-01-01T12:06:53.626Z,950.51
2018-01-01T12:07:53.631Z,950.77
2018-01-01T12:08:53.649Z,950.75
2018-01-01T12:09:53.688Z,950.77
2018-01-01T12:10:53.684Z,950.75
2018-01-01T12:11:53.701Z,950.7
2018-01-01T12:12:53.769Z,950.56
2018-01-01T12:13:53.737Z,950.62
2018-01-01T12:14:53.766Z,950.7
2018-01-01T12:15:53.772Z,950.66
2018-01-01T12:16:53.789Z,950.66
2018-01-01T12:17:53.807Z,950.64
2018-01-01T12:18:53.825Z,950.65
2018-01-01T12:19:53.842Z,950.63
2018-01-01T12:20:53.873Z,950.58
2018-01-01T12:21:53.878Z,950.59
2018-01-01T12:22:53.946Z,950.54
2018-01-01T12:23:53.926Z,950.48
2018-01-01T12:24:53.936Z,950.46
2018-01-01T12:25:53.952Z,950.44
2018-01-01T12:26:53.980Z,950.44
2018-01-01T12:27:54.036Z,950.41
2018-01-01T12:28:54.003Z,950.39
2018-01-01T12:29:54.022Z,950.33
2018-01-01T12:30:54.038Z,950.32
2018-01-01T12:31:54.069Z,950.34